createdAt,value
2023-04-18T00:00:17.261Z,7.15
2023-04-18T00:02:45.760Z,8.25
2023-04-18T00:05:13.527Z,7.82
2023-04-18T00:07:41.497Z,7.00
2023-04-18T00:10:09.053Z,7.72
2023-04-18T00:12:36.640Z,6.63
2023-04-18T00:15:04.924Z,8.38
2023-04-18T00:17:44.777Z,10.18
2023-04-18T00:20:12.981Z,8.80
2023-04-18T00:22:42.974Z,7.97
2023-04-18T00:25:11.337Z,7.75
2023-04-18T00:27:39.374Z,7.63
2023-04-18T00:30:08.411Z,7.93
2023-04-18T00:32:39.018Z,8.98
2023-04-18T00:35:06.966Z,8.13
2023-04-18T00:37:34.539Z,7.75
2023-04-18T00:40:02.094Z,7.38
2023-04-18T00:42:31.248Z,7.78
2023-04-18T00:44:58.541Z,6.57
2023-04-18T00:47:26.094Z,6.57
2023-04-18T00:49:53.669Z,6.45
2023-04-18T00:52:21.106Z,7.18
2023-04-18T00:54:48.469Z,7.32
2023-04-18T00:57:15.861Z,7.40
2023-04-18T00:59:43.355Z,7.38
2023-04-18T01:02:10.690Z,6.00
2023-04-18T01:04:38.197Z,6.47
2023-04-18T01:07:06.256Z,8.13
2023-04-18T01:09:33.606Z,6.80
2023-04-18T01:12:01.997Z,7.00
2023-04-18T01:14:29.284Z,8.20
2023-04-18T01:16:57.736Z,5.55
2023-04-18T01:19:25.162Z,7.30
2023-04-18T01:21:53.767Z,8.45
2023-04-18T01:24:21.854Z,8.15
2023-04-18T01:26:49.132Z,9.20
2023-04-18T01:29:16.565Z,8.43
2023-04-18T01:31:43.987Z,9.20
2023-04-18T01:34:11.825Z,8.02
2023-04-18T01:36:42.212Z,8.13
2023-04-18T01:39:13.541Z,8.85
2023-04-18T01:41:42.446Z,7.65
2023-04-18T01:44:10.682Z,8.68
2023-04-18T01:46:39.090Z,8.40
2023-04-18T01:49:06.657Z,7.88
2023-04-18T01:51:34.097Z,8.77
2023-04-18T01:54:01.483Z,9.15
2023-04-18T01:56:28.838Z,8.77
2023-04-18T01:58:58.805Z,8.98
2023-04-18T02:01:26.252Z,8.30
2023-04-18T02:03:54.125Z,7.88
2023-04-18T02:06:21.841Z,8.88
2023-04-18T02:08:49.288Z,7.75
2023-04-18T02:11:16.930Z,8.77
2023-04-18T02:13:44.844Z,8.88
2023-04-18T02:16:13.791Z,8.98
2023-04-18T02:18:44.050Z,7.45
2023-04-18T02:21:12.160Z,7.47
2023-04-18T02:23:40.039Z,8.55
2023-04-18T02:26:07.533Z,7.40
2023-04-18T02:28:34.939Z,8.52
2023-04-18T02:31:04.075Z,7.70
2023-04-18T02:33:35.367Z,7.68
2023-04-18T02:36:02.677Z,8.45
2023-04-18T02:38:30.106Z,7.60
2023-04-18T02:40:57.895Z,9.75
2023-04-18T02:43:25.370Z,8.73
2023-04-18T02:45:52.831Z,8.82
2023-04-18T02:48:20.765Z,8.52
2023-04-18T02:50:48.221Z,8.48
2023-04-18T02:53:17.098Z,6.78
2023-04-18T02:55:52.782Z,7.28
2023-04-18T02:58:23.646Z,7.90
2023-04-18T03:01:08.764Z,7.47
2023-04-18T03:03:49.994Z,8.70
2023-04-18T03:06:29.812Z,7.32
2023-04-18T03:09:01.702Z,5.47
2023-04-18T03:11:29.930Z,7.53
2023-04-18T03:13:57.632Z,6.80
2023-04-18T03:16:29.726Z,6.38
2023-04-18T03:18:57.118Z,6.13
2023-04-18T03:21:24.693Z,6.18
2023-04-18T03:23:53.354Z,6.03
2023-04-18T03:26:23.034Z,6.85
2023-04-18T03:28:51.044Z,6.07
2023-04-18T03:31:18.535Z,6.32
2023-04-18T03:33:46.343Z,5.97
2023-04-18T03:36:17.526Z,6.28
2023-04-18T03:38:45.654Z,5.15
2023-04-18T03:41:13.265Z,5.35
2023-04-18T03:43:40.657Z,6.03
2023-04-18T03:46:08.062Z,5.43
2023-04-18T03:48:37.547Z,6.22
2023-04-18T03:51:09.668Z,5.10
2023-04-18T03:53:38.403Z,5.63
2023-04-18T03:56:06.072Z,6.18
2023-04-18T03:58:47.876Z,5.97
2023-04-18T04:01:15.305Z,5.63
2023-04-18T04:03:42.997Z,5.75
2023-04-18T04:06:10.613Z,5.53
2023-04-18T04:08:37.994Z,6.65
2023-04-18T04:11:05.519Z,6.00
2023-04-18T04:13:33.850Z,6.00
2023-04-18T04:16:01.683Z,6.18
2023-04-18T04:18:31.479Z,5.53
2023-04-18T04:23:42.713Z,5.72
2023-04-18T04:26:15.278Z,5.90
2023-04-18T04:28:51.942Z,5.85
2023-04-18T04:31:24.118Z,5.10
2023-04-18T04:33:51.490Z,5.30
2023-04-18T04:36:23.332Z,5.30
2023-04-18T04:38:52.664Z,5.78
2023-04-18T04:41:27.972Z,5.80
2023-04-18T04:43:55.615Z,5.65
2023-04-18T04:46:30.626Z,5.38
2023-04-18T04:49:00.947Z,5.70
2023-04-18T04:51:28.320Z,6.53
2023-04-18T04:53:56.551Z,4.85
2023-04-18T04:56:24.396Z,5.57
2023-04-18T04:58:53.290Z,6.20
2023-04-18T05:01:25.229Z,5.68
2023-04-18T05:03:52.937Z,5.22
2023-04-18T05:06:22.717Z,6.40
2023-04-18T05:08:51.147Z,6.20
2023-04-18T05:11:18.647Z,6.93
2023-04-18T05:13:46.064Z,5.20
2023-04-18T05:16:13.520Z,6.53
2023-04-18T05:18:41.649Z,6.22
2023-04-18T05:21:09.245Z,5.47
2023-04-18T05:23:37.392Z,7.72
2023-04-18T05:26:05.790Z,7.22
2023-04-18T05:28:33.608Z,6.72
2023-04-18T05:31:01.717Z,6.88
2023-04-18T05:33:30.115Z,6.45
2023-04-18T05:35:58.160Z,7.05
2023-04-18T05:38:25.833Z,7.47
2023-04-18T05:40:55.903Z,7.28
2023-04-18T05:43:23.621Z,7.22
2023-04-18T05:45:52.834Z,6.75
2023-04-18T05:48:21.632Z,7.32
2023-04-18T05:50:48.956Z,7.22
2023-04-18T05:53:16.534Z,7.47
2023-04-18T05:55:46.570Z,7.95
2023-04-18T05:58:13.957Z,7.20
2023-04-18T06:00:42.886Z,8.05
2023-04-18T06:03:11.290Z,8.48
2023-04-18T06:05:41.242Z,7.40
2023-04-18T06:08:08.705Z,7.50
2023-04-18T06:10:37.730Z,7.90
2023-04-18T06:13:06.629Z,7.05
2023-04-18T06:15:35.367Z,7.28
2023-04-18T06:18:02.936Z,8.52
2023-04-18T06:20:30.422Z,7.45
2023-04-18T06:22:57.829Z,7.95
2023-04-18T06:25:25.375Z,6.45
2023-04-18T06:27:52.664Z,6.65
2023-04-18T06:30:22.216Z,6.65
2023-04-18T06:32:49.773Z,7.10
2023-04-18T06:35:17.433Z,6.45
2023-04-18T06:37:45.262Z,6.97
2023-04-18T06:40:12.920Z,7.32
2023-04-18T06:42:40.468Z,6.90
2023-04-18T06:45:08.247Z,7.50
2023-04-18T06:47:35.647Z,6.63
2023-04-18T06:50:03.077Z,6.43
2023-04-18T06:52:30.827Z,6.80
2023-04-18T06:54:58.225Z,5.95
2023-04-18T06:57:26.322Z,6.78
2023-04-18T06:59:53.670Z,6.75
2023-04-18T07:02:21.133Z,6.45
2023-04-18T07:04:48.567Z,6.03
2023-04-18T07:07:16.135Z,5.90
2023-04-18T07:09:43.546Z,6.28
2023-04-18T07:12:11.128Z,7.00
2023-04-18T07:14:39.074Z,6.40
2023-04-18T07:17:06.649Z,6.38
2023-04-18T07:19:34.025Z,6.22
2023-04-18T07:22:01.623Z,5.55
2023-04-18T07:24:29.299Z,6.45
2023-04-18T07:26:57.349Z,6.28
2023-04-18T07:29:24.703Z,5.78
2023-04-18T07:31:52.276Z,5.55
2023-04-18T07:34:19.660Z,6.50
2023-04-18T07:36:46.991Z,4.82
2023-04-18T07:39:14.575Z,4.88
2023-04-18T07:41:42.034Z,4.72
2023-04-18T07:44:09.429Z,5.07
2023-04-18T07:46:36.963Z,4.80
2023-04-18T07:49:04.938Z,4.72
2023-04-18T07:51:32.734Z,5.40
2023-04-18T07:54:00.131Z,6.03
2023-04-18T07:56:28.442Z,4.97
2023-04-18T07:58:55.956Z,4.78
2023-04-18T08:01:24.998Z,4.45
2023-04-18T08:03:54.452Z,5.57
2023-04-18T08:06:21.920Z,5.30
2023-04-18T08:08:49.292Z,5.18
2023-04-18T08:11:16.829Z,5.18
2023-04-18T08:13:44.255Z,4.88
2023-04-18T08:16:11.718Z,5.07
2023-04-18T08:18:39.101Z,4.93
2023-04-18T08:21:06.477Z,4.53
2023-04-18T08:23:33.859Z,5.18
2023-04-18T08:26:01.249Z,5.20
2023-04-18T08:28:28.651Z,4.63
2023-04-18T08:30:56.807Z,5.30
2023-04-18T08:33:24.789Z,5.03
2023-04-18T08:35:52.488Z,5.88
2023-04-18T08:38:19.966Z,5.28
2023-04-18T08:40:47.885Z,5.53
2023-04-18T08:43:16.001Z,5.80
2023-04-18T08:45:44.693Z,6.10
2023-04-18T08:48:14.108Z,6.13
2023-04-18T08:50:42.248Z,7.80
2023-04-18T08:53:10.111Z,6.72
2023-04-18T08:55:37.900Z,8.20
2023-04-18T08:58:07.090Z,6.90
2023-04-18T09:00:35.430Z,6.85
2023-04-18T09:03:04.142Z,7.07
2023-04-18T09:05:31.837Z,7.00
2023-04-18T09:07:59.345Z,8.13
2023-04-18T09:13:04.604Z,7.43
2023-04-18T09:15:32.704Z,8.65
2023-04-18T09:18:03.081Z,9.05
2023-04-18T09:20:41.614Z,8.85
2023-04-18T09:23:11.515Z,8.02
2023-04-18T09:28:33.553Z,7.95
2023-04-18T09:31:17.511Z,9.13
2023-04-18T09:33:57.160Z,7.78
2023-04-18T09:36:28.127Z,9.30
2023-04-18T09:38:57.073Z,7.85
2023-04-18T09:41:24.913Z,9.30
2023-04-18T09:44:12.371Z,10.13
2023-04-18T09:46:42.017Z,8.70
2023-04-18T09:49:11.118Z,9.05
2023-04-18T09:51:40.618Z,8.73
2023-04-18T09:54:09.774Z,7.97
2023-04-18T09:56:38.382Z,7.45
2023-04-18T09:59:10.186Z,8.93
2023-04-18T10:01:38.624Z,8.25
2023-04-18T10:04:08.194Z,8.65
2023-04-18T10:06:40.065Z,7.72
2023-04-18T10:09:08.991Z,7.97
2023-04-18T10:11:36.822Z,7.43
2023-04-18T10:14:08.005Z,8.32
2023-04-18T10:16:36.444Z,6.45
2023-04-18T10:19:25.392Z,8.57
2023-04-18T10:21:54.319Z,7.72
2023-04-18T10:24:50.159Z,8.10
2023-04-18T10:27:18.447Z,7.30
2023-04-18T10:34:54.490Z,8.55
2023-04-18T10:37:21.961Z,8.25
2023-04-18T10:39:58.609Z,7.60
2023-04-18T10:47:51.787Z,7.22
2023-04-18T10:50:19.172Z,6.25
2023-04-18T10:52:46.473Z,5.72
2023-04-18T10:55:19.305Z,6.57
2023-04-18T10:57:48.998Z,5.70
2023-04-18T11:00:19.228Z,5.68
2023-04-18T11:02:52.104Z,5.57
2023-04-18T11:05:24.397Z,7.00
2023-04-18T11:07:51.894Z,7.38
2023-04-18T11:10:22.275Z,6.55
2023-04-18T11:12:49.923Z,6.47
2023-04-18T11:15:22.377Z,7.03
2023-04-18T11:18:06.276Z,7.03
2023-04-18T11:20:47.747Z,6.53
2023-04-18T11:30:52.541Z,7.15
2023-04-18T11:33:20.072Z,6.25
2023-04-18T11:35:47.773Z,5.80
2023-04-18T11:38:16.365Z,6.00
2023-04-18T11:40:51.399Z,6.50
2023-04-18T11:43:26.597Z,6.43
2023-04-18T11:45:56.463Z,6.57
2023-04-18T11:48:24.556Z,6.53
2023-04-18T11:50:52.403Z,5.80
2023-04-18T11:53:39.944Z,6.00
2023-04-18T11:56:07.759Z,6.13
2023-04-18T11:58:36.553Z,5.30
2023-04-18T12:01:20.712Z,5.60
2023-04-18T12:04:06.991Z,5.63
2023-04-18T12:06:51.801Z,6.60
2023-04-18T12:09:21.494Z,6.10
2023-04-18T12:12:05.493Z,6.15
2023-04-18T12:14:36.031Z,5.85
2023-04-18T12:17:03.987Z,7.40
2023-04-18T12:19:31.800Z,6.97
2023-04-18T12:22:01.258Z,6.72
2023-04-18T12:24:30.617Z,10.18
2023-04-18T12:26:58.921Z,8.32
2023-04-18T12:29:27.152Z,7.13
2023-04-18T12:31:54.605Z,7.60
2023-04-18T12:34:22.326Z,6.85
2023-04-18T12:36:49.802Z,6.43
2023-04-18T12:39:17.196Z,5.25
2023-04-18T12:41:44.601Z,6.03
2023-04-18T12:44:12.936Z,6.90
2023-04-18T12:46:40.377Z,7.13
2023-04-18T12:49:08.551Z,6.63
2023-04-18T12:51:51.783Z,7.35
2023-04-18T12:54:36.751Z,6.00
2023-04-18T12:57:05.336Z,6.25
2023-04-18T12:59:32.671Z,7.10
2023-04-18T13:02:00.204Z,6.90
2023-04-18T13:04:28.094Z,7.60
2023-04-18T13:06:55.598Z,7.18
2023-04-18T13:09:54.820Z,6.63
2023-04-18T13:12:22.310Z,7.10
2023-04-18T13:14:49.689Z,9.85
2023-04-18T13:17:17.020Z,7.72
2023-04-18T13:19:44.512Z,9.07
2023-04-18T13:22:12.086Z,10.95
2023-04-18T13:24:55.235Z,10.88
2023-04-18T13:27:41.420Z,9.85
2023-04-18T13:30:12.097Z,10.82
2023-04-18T13:32:55.451Z,9.98
2023-04-18T13:35:22.936Z,9.18
2023-04-18T13:37:50.395Z,8.40
2023-04-18T13:40:17.839Z,7.47
2023-04-18T13:42:45.951Z,7.00
2023-04-18T13:45:13.401Z,6.18
2023-04-18T13:47:41.099Z,6.00
2023-04-18T13:50:09.282Z,6.70
2023-04-18T13:52:36.745Z,6.15
2023-04-18T13:55:04.473Z,6.82
2023-04-18T13:57:34.584Z,6.57
2023-04-18T14:00:02.153Z,5.90
2023-04-18T14:02:51.093Z,7.05
2023-04-18T14:05:18.817Z,5.65
2023-04-18T14:07:46.214Z,5.50
2023-04-18T14:10:13.663Z,5.22
2023-04-18T14:12:41.255Z,5.30
2023-04-18T14:15:09.467Z,6.07
2023-04-18T14:17:36.983Z,4.90
2023-04-18T14:20:05.276Z,11.57
2023-04-18T14:22:32.801Z,34.58
2023-04-18T14:25:00.177Z,23.13
2023-04-18T14:30:11.663Z,7.95
2023-04-18T14:32:39.217Z,7.25
2023-04-18T14:38:05.108Z,7.78
2023-04-18T14:40:33.135Z,12.32
2023-04-18T14:43:16.353Z,15.93
2023-04-18T14:45:43.781Z,15.75
2023-04-18T14:48:11.273Z,17.02
2023-04-18T14:50:38.979Z,16.70
2023-04-18T14:53:06.823Z,14.95
2023-04-18T14:55:34.747Z,15.98
2023-04-18T14:58:02.159Z,21.08
2023-04-18T15:00:30.452Z,22.67
2023-04-18T15:02:58.022Z,17.70
2023-04-18T15:05:45.283Z,11.32
2023-04-18T15:08:14.736Z,15.07
2023-04-18T15:10:58.454Z,29.17
2023-04-18T15:13:25.945Z,42.10
2023-04-18T15:15:54.533Z,38.20
2023-04-18T15:18:37.992Z,15.70
2023-04-18T15:21:05.655Z,10.00
2023-04-18T15:23:34.333Z,10.18
2023-04-18T15:26:01.761Z,11.80
2023-04-18T15:28:29.105Z,10.82
2023-04-18T15:30:56.489Z,10.35
2023-04-18T15:33:25.411Z,11.82
2023-04-18T15:35:52.844Z,8.10
2023-04-18T15:38:20.193Z,7.20
2023-04-18T15:41:03.237Z,5.30
2023-04-18T15:43:30.611Z,5.95
2023-04-18T15:46:14.018Z,5.55
2023-04-18T15:48:41.499Z,5.30
2023-04-18T15:51:08.908Z,4.82
2023-04-18T15:53:36.365Z,5.25
2023-04-18T15:59:05.461Z,4.78
2023-04-18T16:01:33.516Z,4.72
2023-04-18T16:04:01.235Z,4.20
2023-04-18T16:06:30.031Z,4.85
2023-04-18T16:08:58.126Z,5.00
2023-04-18T16:11:26.790Z,4.90
2023-04-18T16:13:56.137Z,6.38
2023-04-18T16:16:43.569Z,5.35
2023-04-18T16:19:26.765Z,4.97
2023-04-18T16:21:54.081Z,4.82
2023-04-18T16:24:21.470Z,5.60
2023-04-18T16:26:48.890Z,4.82
2023-04-18T16:29:16.277Z,5.55
2023-04-18T16:31:59.318Z,5.65
2023-04-18T16:34:26.644Z,5.60
2023-04-18T16:36:55.609Z,6.18
2023-04-18T16:39:23.164Z,5.72
2023-04-18T16:41:51.363Z,6.28
2023-04-18T16:44:18.751Z,6.07
2023-04-18T16:46:46.286Z,5.85
2023-04-18T16:49:13.972Z,5.80
2023-04-18T16:51:41.362Z,6.80
2023-04-18T16:54:09.135Z,5.63
2023-04-18T16:56:36.499Z,6.03
2023-04-18T16:59:04.379Z,6.60
2023-04-18T17:01:32.186Z,5.78
2023-04-18T17:03:59.645Z,6.03
2023-04-18T17:06:27.512Z,5.90
2023-04-18T17:08:54.984Z,5.60
2023-04-18T17:11:22.381Z,6.13
2023-04-18T17:13:51.560Z,5.90
2023-04-18T17:16:19.030Z,5.70
2023-04-18T17:18:46.412Z,6.15
2023-04-18T17:21:29.527Z,6.28
2023-04-18T17:23:59.422Z,5.70
2023-04-18T17:26:28.080Z,5.93
2023-04-18T17:28:55.380Z,6.53
2023-04-18T17:31:22.939Z,5.70
2023-04-18T17:33:51.517Z,5.55
2023-04-18T17:36:18.907Z,5.85
2023-04-18T17:38:49.134Z,6.35
2023-04-18T17:41:18.130Z,6.18
2023-04-18T17:43:46.047Z,5.82
2023-04-18T17:46:14.084Z,6.50
2023-04-18T17:48:41.772Z,6.03
2023-04-18T17:51:09.438Z,6.40
2023-04-18T17:53:36.887Z,5.75
2023-04-18T17:56:04.630Z,7.13
2023-04-18T17:58:32.237Z,6.00
2023-04-18T18:00:59.681Z,6.68
2023-04-18T18:03:27.276Z,6.43
2023-04-18T18:05:55.935Z,7.13
2023-04-18T18:08:23.346Z,6.82
2023-04-18T18:10:50.880Z,6.40
2023-04-18T18:13:18.381Z,7.07
2023-04-18T18:15:45.807Z,6.43
2023-04-18T18:18:27.276Z,7.15
2023-04-18T18:20:54.708Z,7.63
2023-04-18T18:23:22.403Z,7.57
2023-04-18T18:25:50.909Z,7.15
2023-04-18T18:28:18.425Z,5.95
2023-04-18T18:30:45.899Z,7.03
2023-04-18T18:33:13.673Z,5.57
2023-04-18T18:35:41.060Z,6.25
2023-04-18T18:38:08.471Z,6.00
2023-04-18T18:40:35.893Z,6.63
2023-04-18T18:43:03.331Z,6.18
2023-04-18T18:45:30.719Z,6.00
2023-04-18T18:47:58.130Z,5.55
2023-04-18T18:50:25.544Z,6.93
2023-04-18T18:52:52.894Z,7.40
2023-04-18T18:55:20.264Z,6.95
2023-04-18T18:57:48.560Z,6.82
2023-04-18T19:00:16.638Z,7.55
2023-04-18T19:02:44.160Z,7.07
2023-04-18T19:05:12.916Z,6.75
2023-04-18T19:07:43.969Z,7.20
2023-04-18T19:10:11.507Z,6.50
2023-04-18T19:12:39.038Z,6.32
2023-04-18T19:15:07.209Z,6.85
2023-04-18T19:17:37.458Z,5.68
2023-04-18T19:20:08.403Z,6.13
2023-04-18T19:22:41.967Z,5.30
2023-04-18T19:25:17.010Z,5.78
2023-04-18T19:27:54.455Z,4.93
2023-04-18T19:30:33.037Z,5.93
2023-04-18T19:33:06.831Z,5.43
2023-04-18T19:35:38.214Z,5.32
2023-04-18T19:38:10.386Z,5.10
2023-04-18T19:40:44.610Z,5.13
2023-04-18T19:43:18.748Z,5.30
2023-04-18T19:45:50.946Z,4.97
2023-04-18T19:48:23.845Z,5.47
2023-04-18T19:51:01.251Z,4.38
2023-04-18T19:53:34.509Z,4.82
2023-04-18T19:56:08.535Z,4.75
2023-04-18T19:58:46.868Z,4.45
2023-04-18T20:01:24.127Z,4.50
2023-04-18T20:03:56.945Z,3.85
2023-04-18T20:06:33.926Z,5.20
2023-04-18T20:09:06.279Z,5.07
2023-04-18T20:11:36.451Z,4.25
2023-04-18T20:14:05.336Z,4.70
2023-04-18T20:16:34.169Z,5.13
2023-04-18T20:19:04.086Z,4.25
2023-04-18T20:21:33.843Z,4.53
2023-04-18T20:24:04.961Z,4.47
2023-04-18T20:26:34.246Z,5.57
2023-04-18T20:29:04.496Z,4.75
2023-04-18T20:31:36.659Z,4.75
2023-04-18T20:34:05.070Z,4.53
2023-04-18T20:36:51.447Z,4.97
2023-04-18T20:39:22.842Z,4.75
2023-04-18T20:41:55.386Z,5.38
2023-04-18T20:44:26.297Z,4.65
2023-04-18T20:47:10.770Z,4.97
2023-04-18T20:49:39.821Z,4.40
2023-04-18T20:52:09.871Z,4.50
2023-04-18T20:54:37.387Z,4.68
2023-04-18T20:57:20.650Z,4.60
2023-04-18T21:00:07.000Z,5.00
2023-04-18T21:02:59.935Z,5.78
2023-04-18T21:05:27.805Z,5.13
2023-04-18T21:07:55.360Z,5.38
2023-04-18T21:10:23.005Z,5.47
2023-04-18T21:12:50.710Z,5.47
2023-04-18T21:15:18.364Z,5.07
2023-04-18T21:18:01.581Z,5.40
2023-04-18T21:20:44.724Z,5.43
2023-04-18T21:23:13.533Z,5.32
2023-04-18T21:25:56.677Z,5.45
2023-04-18T21:28:24.051Z,5.20
2023-04-18T21:30:51.519Z,5.60
2023-04-18T21:33:19.614Z,6.68
2023-04-18T21:35:47.039Z,5.45
2023-04-18T21:38:14.495Z,6.10
2023-04-18T21:41:17.467Z,6.35
2023-04-18T21:44:00.722Z,5.28
2023-04-18T21:46:28.221Z,5.90
2023-04-18T21:49:11.230Z,6.85
2023-04-18T21:51:38.774Z,7.55
2023-04-18T21:54:08.018Z,7.57
2023-04-18T21:57:06.965Z,6.68
2023-04-18T21:59:34.369Z,7.38
2023-04-18T22:02:17.475Z,7.78
2023-04-18T22:04:44.954Z,7.88
2023-04-18T22:07:12.750Z,7.88
2023-04-18T22:09:40.110Z,8.82
2023-04-18T22:12:24.762Z,7.45
2023-04-18T22:15:08.262Z,7.65
2023-04-18T22:17:37.385Z,6.72
2023-04-18T22:20:21.846Z,6.95
2023-04-18T22:22:49.288Z,7.63
2023-04-18T22:25:16.757Z,6.15
2023-04-18T22:27:45.361Z,7.05
2023-04-18T22:30:13.731Z,6.60
2023-04-18T22:32:41.996Z,5.53
2023-04-18T22:35:09.887Z,6.32
2023-04-18T22:37:37.330Z,6.38
2023-04-18T22:40:06.315Z,6.30
2023-04-18T22:42:33.958Z,7.47
2023-04-18T22:45:01.961Z,7.55
2023-04-18T22:47:31.880Z,8.80
2023-04-18T22:49:59.292Z,8.27
2023-04-18T22:52:26.709Z,7.57
2023-04-18T22:54:54.117Z,7.75
2023-04-18T22:57:22.019Z,8.50
2023-04-18T22:59:49.383Z,8.15
2023-04-18T23:02:16.858Z,7.30
2023-04-18T23:04:46.419Z,7.57
2023-04-18T23:07:13.941Z,7.10
2023-04-18T23:09:41.330Z,8.43
2023-04-18T23:12:08.765Z,7.35
2023-04-18T23:14:36.311Z,7.78
2023-04-18T23:17:03.634Z,8.45
2023-04-18T23:19:31.005Z,8.48
2023-04-18T23:21:58.389Z,9.40
2023-04-18T23:24:25.758Z,8.52
2023-04-18T23:26:53.305Z,7.15
2023-04-18T23:29:20.604Z,5.95
2023-04-18T23:31:48.022Z,5.68
2023-04-18T23:34:15.781Z,5.85
2023-04-18T23:36:43.359Z,4.82
2023-04-18T23:39:10.678Z,5.22
2023-04-18T23:41:38.013Z,4.93
2023-04-18T23:44:06.013Z,5.40
2023-04-18T23:46:35.072Z,4.45
2023-04-18T23:49:03.752Z,5.75
2023-04-18T23:51:31.320Z,5.75
2023-04-18T23:53:58.662Z,5.00
2023-04-18T23:56:26.655Z,4.75
2023-04-18T23:58:54.334Z,4.70
